createdAt,value
2022-10-12T00:00:10.275Z,6.30
2022-10-12T00:01:10.213Z,6.30
2022-10-12T00:02:10.200Z,6.38
2022-10-12T00:03:11.391Z,6.25
2022-10-12T00:04:10.014Z,6.48
2022-10-12T00:05:09.950Z,6.40
2022-10-12T00:06:09.880Z,6.46
2022-10-12T00:07:09.820Z,6.45
2022-10-12T00:08:09.747Z,6.39
2022-10-12T00:09:09.688Z,6.39
2022-10-12T00:10:09.618Z,6.38
2022-10-12T00:11:09.549Z,6.27
2022-10-12T00:12:09.482Z,6.27
2022-10-12T00:13:09.420Z,6.19
2022-10-12T00:14:09.349Z,6.25
2022-10-12T00:15:09.286Z,6.19
2022-10-12T00:16:09.214Z,6.19
2022-10-12T00:17:09.151Z,6.25
2022-10-12T00:18:09.084Z,6.27
2022-10-12T00:19:09.019Z,6.27
2022-10-12T00:20:08.954Z,6.28
2022-10-12T00:21:08.885Z,6.21
2022-10-12T00:22:08.819Z,6.21
2022-10-12T00:23:08.763Z,6.27
2022-10-12T00:24:08.691Z,6.36
2022-10-12T00:25:08.622Z,6.25
2022-10-12T00:26:08.552Z,6.32
2022-10-12T00:27:08.491Z,6.27
2022-10-12T00:28:08.584Z,6.30
2022-10-12T00:29:08.356Z,6.30
2022-10-12T00:30:08.285Z,6.30
2022-10-12T00:31:08.248Z,6.36
2022-10-12T00:32:08.153Z,6.33
2022-10-12T00:33:08.092Z,6.33
2022-10-12T00:34:08.023Z,6.36
2022-10-12T00:35:07.956Z,6.35
2022-10-12T00:36:07.889Z,6.32
2022-10-12T00:37:07.822Z,6.30
2022-10-12T00:38:07.773Z,6.30
2022-10-12T00:39:07.696Z,6.36
2022-10-12T00:40:07.625Z,6.32
2022-10-12T00:41:07.557Z,6.32
2022-10-12T00:42:07.489Z,6.43
2022-10-12T00:43:07.432Z,6.40
2022-10-12T00:44:07.357Z,6.39
2022-10-12T00:45:07.290Z,6.32
2022-10-12T00:46:07.226Z,6.33
2022-10-12T00:47:07.159Z,6.21
2022-10-12T00:48:07.091Z,6.20
2022-10-12T00:49:07.029Z,6.14
2022-10-12T00:50:06.958Z,6.20
2022-10-12T00:51:06.899Z,6.21
2022-10-12T00:52:06.832Z,6.24
2022-10-12T00:53:06.759Z,6.20
2022-10-12T00:54:06.701Z,6.20
2022-10-12T00:55:06.636Z,6.16
2022-10-12T00:56:06.557Z,6.25
2022-10-12T00:57:06.497Z,6.21
2022-10-12T00:58:06.429Z,6.14
2022-10-12T00:59:06.362Z,6.11
2022-10-12T01:00:06.294Z,5.98
2022-10-12T01:01:06.354Z,5.95
2022-10-12T01:02:06.163Z,6.11
2022-10-12T01:03:06.101Z,6.05
2022-10-12T01:04:06.030Z,6.24
2022-10-12T01:05:05.959Z,6.21
2022-10-12T01:06:05.895Z,6.20
2022-10-12T01:07:05.829Z,6.24
2022-10-12T01:08:05.761Z,6.20
2022-10-12T01:09:05.695Z,6.02
2022-10-12T01:10:05.632Z,6.01
2022-10-12T01:11:05.573Z,6.02
2022-10-12T01:12:05.496Z,6.14
2022-10-12T01:13:05.430Z,6.24
2022-10-12T01:14:05.364Z,6.28
2022-10-12T01:15:05.307Z,6.27
2022-10-12T01:16:05.227Z,6.32
2022-10-12T01:17:05.164Z,6.21
2022-10-12T01:18:05.103Z,6.27
2022-10-12T01:19:05.037Z,6.32
2022-10-12T01:20:04.969Z,6.25
2022-10-12T01:21:04.929Z,6.10
2022-10-12T01:22:04.832Z,6.08
2022-10-12T01:23:04.768Z,5.92
2022-10-12T01:24:04.704Z,5.92
2022-10-12T01:25:04.633Z,5.88
2022-10-12T01:26:04.568Z,5.90
2022-10-12T01:27:04.538Z,6.02
2022-10-12T01:28:04.453Z,5.98
2022-10-12T01:29:04.379Z,5.88
2022-10-12T01:30:04.342Z,5.92
2022-10-12T01:31:04.236Z,5.93
2022-10-12T01:32:04.178Z,5.96
2022-10-12T01:33:04.097Z,6.06
2022-10-12T01:34:04.041Z,6.10
2022-10-12T01:35:04.023Z,6.03
2022-10-12T01:36:03.900Z,5.96
2022-10-12T01:37:03.840Z,5.90
2022-10-12T01:38:03.762Z,5.81
2022-10-12T01:39:03.697Z,5.78
2022-10-12T01:40:03.632Z,5.77
2022-10-12T01:41:03.563Z,5.75
2022-10-12T01:42:03.499Z,5.83
2022-10-12T01:43:03.435Z,5.75
2022-10-12T01:44:03.361Z,5.78
2022-10-12T01:45:03.337Z,5.83
2022-10-12T01:46:03.232Z,5.77
2022-10-12T01:47:03.164Z,5.69
2022-10-12T01:48:03.096Z,5.70
2022-10-12T01:49:03.034Z,5.81
2022-10-12T01:50:02.962Z,5.75
2022-10-12T01:51:02.896Z,5.75
2022-10-12T01:52:02.826Z,5.81
2022-10-12T01:53:02.762Z,5.88
2022-10-12T01:54:02.699Z,5.88
2022-10-12T01:55:02.627Z,5.80
2022-10-12T01:56:02.562Z,5.80
2022-10-12T01:57:02.495Z,5.73
2022-10-12T01:58:02.431Z,5.65
2022-10-12T01:59:02.362Z,5.60
2022-10-12T02:00:02.298Z,5.52
2022-10-12T02:01:02.301Z,5.47
2022-10-12T02:02:02.162Z,5.47
2022-10-12T02:03:02.095Z,5.45
2022-10-12T02:04:02.029Z,5.55
2022-10-12T02:05:01.960Z,5.59
2022-10-12T02:06:01.898Z,5.65
2022-10-12T02:07:01.827Z,5.66
2022-10-12T02:08:01.771Z,5.66
2022-10-12T02:09:01.700Z,5.66
2022-10-12T02:10:01.624Z,5.70
2022-10-12T02:11:01.557Z,5.77
2022-10-12T02:12:01.490Z,5.78
2022-10-12T02:13:01.428Z,5.80
2022-10-12T02:14:01.361Z,5.83
2022-10-12T02:15:01.297Z,5.77
2022-10-12T02:16:01.227Z,5.78
2022-10-12T02:17:01.155Z,5.80
2022-10-12T02:18:01.091Z,5.78
2022-10-12T02:19:01.029Z,5.78
2022-10-12T02:20:00.955Z,5.70
2022-10-12T02:21:00.891Z,5.75
2022-10-12T02:22:00.825Z,5.58
2022-10-12T02:23:00.755Z,5.52
2022-10-12T02:24:00.688Z,5.48
2022-10-12T02:25:00.619Z,5.37
2022-10-12T02:26:00.556Z,5.42
2022-10-12T02:27:00.488Z,5.38
2022-10-12T02:28:00.421Z,5.47
2022-10-12T02:29:00.351Z,5.47
2022-10-12T02:30:00.288Z,5.42
2022-10-12T02:31:00.219Z,5.47
2022-10-12T02:32:00.153Z,5.47
2022-10-12T02:33:00.104Z,5.47
2022-10-12T02:34:00.021Z,5.48
2022-10-12T02:34:59.950Z,5.40
2022-10-12T02:35:59.886Z,5.40
2022-10-12T02:36:59.853Z,5.29
2022-10-12T02:37:59.756Z,5.41
2022-10-12T02:38:59.686Z,5.37
2022-10-12T02:39:59.615Z,5.45
2022-10-12T02:40:59.548Z,5.44
2022-10-12T02:41:59.483Z,5.48
2022-10-12T02:43:10.477Z,5.41
2022-10-12T02:43:59.348Z,5.23
2022-10-12T02:44:59.282Z,5.23
2022-10-12T02:45:59.221Z,5.12
2022-10-12T02:46:59.152Z,5.12
2022-10-12T02:47:59.096Z,5.17
2022-10-12T02:48:59.012Z,5.15
2022-10-12T02:49:58.947Z,5.05
2022-10-12T02:50:58.878Z,5.08
2022-10-12T02:51:58.814Z,5.12
2022-10-12T02:52:58.742Z,5.15
2022-10-12T02:53:58.682Z,5.38
2022-10-12T02:54:58.611Z,5.44
2022-10-12T02:55:58.554Z,5.30
2022-10-12T02:56:58.475Z,5.27
2022-10-12T02:57:58.413Z,5.29
2022-10-12T02:58:58.342Z,5.27
2022-10-12T02:59:58.275Z,5.29
2022-10-12T03:00:58.257Z,5.24
2022-10-12T03:01:58.146Z,5.29
2022-10-12T03:02:58.076Z,5.41
2022-10-12T03:03:58.006Z,5.41
2022-10-12T03:04:57.941Z,5.29
2022-10-12T03:05:57.883Z,5.08
2022-10-12T03:06:57.805Z,5.09
2022-10-12T03:07:57.743Z,5.11
2022-10-12T03:08:57.678Z,5.06
2022-10-12T03:09:57.609Z,5.22
2022-10-12T03:10:57.538Z,5.22
2022-10-12T03:11:57.469Z,5.17
2022-10-12T03:12:57.401Z,5.15
2022-10-12T03:13:57.336Z,5.15
2022-10-12T03:14:57.270Z,5.14
2022-10-12T03:15:57.203Z,5.11
2022-10-12T03:16:57.135Z,5.20
2022-10-12T03:17:57.072Z,5.12
2022-10-12T03:18:57.005Z,5.11
2022-10-12T03:19:56.935Z,5.05
2022-10-12T03:20:56.865Z,5.04
2022-10-12T03:21:56.798Z,5.08
2022-10-12T03:22:56.731Z,5.04
2022-10-12T03:23:56.668Z,5.05
2022-10-12T03:24:56.596Z,5.04
2022-10-12T03:25:56.530Z,5.06
2022-10-12T03:26:56.461Z,5.08
2022-10-12T03:27:56.399Z,5.09
2022-10-12T03:28:56.382Z,4.96
2022-10-12T03:29:56.264Z,4.84
2022-10-12T03:30:56.195Z,5.06
2022-10-12T03:31:56.127Z,5.09
2022-10-12T03:32:56.058Z,5.23
2022-10-12T03:33:55.995Z,5.15
2022-10-12T03:34:55.928Z,5.14
2022-10-12T03:35:55.857Z,5.11
2022-10-12T03:36:55.793Z,5.26
2022-10-12T03:37:55.730Z,5.19
2022-10-12T03:38:55.661Z,5.23
2022-10-12T03:39:55.653Z,5.23
2022-10-12T03:40:55.523Z,5.20
2022-10-12T03:41:55.461Z,5.26
2022-10-12T03:42:55.396Z,5.15
2022-10-12T03:43:55.323Z,5.19
2022-10-12T03:44:55.250Z,5.11
2022-10-12T03:45:55.189Z,5.20
2022-10-12T03:46:55.120Z,5.30
2022-10-12T03:47:55.051Z,5.27
2022-10-12T03:48:54.994Z,5.22
2022-10-12T03:49:54.916Z,5.11
2022-10-12T03:50:54.850Z,5.06
2022-10-12T03:51:54.784Z,5.06
2022-10-12T03:52:54.716Z,4.94
2022-10-12T03:53:54.648Z,4.97
2022-10-12T03:54:54.585Z,4.96
2022-10-12T03:55:54.510Z,5.01
2022-10-12T03:56:54.446Z,5.01
2022-10-12T03:57:54.382Z,4.93
2022-10-12T03:58:54.438Z,4.84
2022-10-12T03:59:54.243Z,4.86
2022-10-12T04:00:54.175Z,4.86
2022-10-12T04:01:54.219Z,4.88
2022-10-12T04:02:54.041Z,4.90
2022-10-12T04:03:53.978Z,4.94
2022-10-12T04:04:53.908Z,4.93
2022-10-12T04:05:53.847Z,4.90
2022-10-12T04:06:53.773Z,4.90
2022-10-12T04:07:53.705Z,5.04
2022-10-12T04:08:53.637Z,5.04
2022-10-12T04:09:53.592Z,5.05
2022-10-12T04:10:53.662Z,5.09
2022-10-12T04:11:53.434Z,5.06
2022-10-12T04:12:53.365Z,5.01
2022-10-12T04:13:53.302Z,4.94
2022-10-12T04:14:53.238Z,4.87
2022-10-12T04:15:53.166Z,4.84
2022-10-12T04:16:53.098Z,4.80
2022-10-12T04:17:53.032Z,4.91
2022-10-12T04:18:52.961Z,4.90
2022-10-12T04:19:52.896Z,4.97
2022-10-12T04:20:52.831Z,5.02
2022-10-12T04:21:52.762Z,5.04
2022-10-12T04:22:52.696Z,4.96
2022-10-12T04:23:52.623Z,4.86
2022-10-12T04:24:52.574Z,4.86
2022-10-12T04:25:52.551Z,4.90
2022-10-12T04:26:52.425Z,4.93
2022-10-12T04:27:52.353Z,4.93
2022-10-12T04:28:52.329Z,4.91
2022-10-12T04:29:52.221Z,4.91
2022-10-12T04:30:52.154Z,4.99
2022-10-12T04:31:52.087Z,4.90
2022-10-12T04:32:52.021Z,4.86
2022-10-12T04:33:51.957Z,4.72
2022-10-12T04:34:51.883Z,4.67
2022-10-12T04:35:51.863Z,4.69
2022-10-12T04:36:51.750Z,4.75
2022-10-12T04:37:51.680Z,4.74
2022-10-12T04:38:51.615Z,4.71
2022-10-12T04:39:51.544Z,4.72
2022-10-12T04:40:51.475Z,4.84
2022-10-12T04:41:51.481Z,4.90
2022-10-12T04:42:51.342Z,4.88
2022-10-12T04:43:51.273Z,4.91
2022-10-12T04:44:51.208Z,4.90
2022-10-12T04:45:51.147Z,4.87
2022-10-12T04:46:51.076Z,4.88
2022-10-12T04:47:51.005Z,4.87
2022-10-12T04:48:50.935Z,4.79
2022-10-12T04:49:50.870Z,4.72
2022-10-12T04:50:50.801Z,4.69
2022-10-12T04:51:50.733Z,4.67
2022-10-12T04:52:50.666Z,4.67
2022-10-12T04:53:50.600Z,4.62
2022-10-12T04:54:50.531Z,4.56
2022-10-12T04:55:50.462Z,4.64
2022-10-12T04:56:50.395Z,4.61
2022-10-12T04:57:50.347Z,4.57
2022-10-12T04:58:50.265Z,4.62
2022-10-12T04:59:50.199Z,4.50
2022-10-12T05:00:50.130Z,4.50
2022-10-12T05:01:50.139Z,4.44
2022-10-12T05:02:49.991Z,4.51
2022-10-12T05:03:49.930Z,4.50
2022-10-12T05:04:49.854Z,4.43
2022-10-12T05:05:49.788Z,4.54
2022-10-12T05:06:49.722Z,4.51
2022-10-12T05:07:49.653Z,4.57
2022-10-12T05:08:49.586Z,4.54
2022-10-12T05:09:49.528Z,4.56
2022-10-12T05:10:49.451Z,4.47
2022-10-12T05:11:49.387Z,4.47
2022-10-12T05:12:49.317Z,4.51
2022-10-12T05:13:49.248Z,4.43
2022-10-12T05:14:49.189Z,4.43
2022-10-12T05:15:49.110Z,4.31
2022-10-12T05:16:49.043Z,4.43
2022-10-12T05:17:48.981Z,4.44
2022-10-12T05:18:48.909Z,4.49
2022-10-12T05:19:48.902Z,4.49
2022-10-12T05:20:50.437Z,4.56
2022-10-12T05:21:48.710Z,4.54
2022-10-12T05:22:48.684Z,4.50
2022-10-12T05:23:48.570Z,4.53
2022-10-12T05:24:53.473Z,4.51
2022-10-12T05:25:48.437Z,4.46
2022-10-12T05:26:48.750Z,4.59
2022-10-12T05:27:48.299Z,4.62
2022-10-12T05:28:48.283Z,4.64
2022-10-12T05:29:48.184Z,4.68
2022-10-12T05:30:48.106Z,4.88
2022-10-12T05:31:48.037Z,4.84
2022-10-12T05:32:47.961Z,4.84
2022-10-12T05:33:47.894Z,4.84
2022-10-12T05:34:47.830Z,4.87
2022-10-12T05:35:50.200Z,4.96
2022-10-12T05:36:47.689Z,4.96
2022-10-12T05:37:47.632Z,5.05
2022-10-12T05:38:47.559Z,4.99
2022-10-12T05:39:47.499Z,5.02
2022-10-12T05:40:47.426Z,4.93
2022-10-12T05:41:47.359Z,4.97
2022-10-12T05:42:47.285Z,4.94
2022-10-12T05:43:47.235Z,4.91
2022-10-12T05:44:47.151Z,4.86
2022-10-12T05:45:47.086Z,4.86
2022-10-12T05:46:47.014Z,4.88
2022-10-12T05:47:46.946Z,4.90
2022-10-12T05:48:46.892Z,4.80
2022-10-12T05:49:46.816Z,4.86
2022-10-12T05:50:46.741Z,4.79
2022-10-12T05:51:46.677Z,4.80
2022-10-12T05:52:46.606Z,4.87
2022-10-12T05:53:46.544Z,4.93
2022-10-12T05:54:46.472Z,5.08
2022-10-12T05:55:46.404Z,5.06
2022-10-12T05:56:46.340Z,5.06
2022-10-12T05:57:51.001Z,5.11
2022-10-12T05:58:46.204Z,5.04
2022-10-12T05:59:46.145Z,5.04
2022-10-12T06:00:46.065Z,5.05
2022-10-12T06:01:46.081Z,5.06
2022-10-12T06:02:45.931Z,5.09
2022-10-12T06:03:45.864Z,5.05
2022-10-12T06:04:45.796Z,5.04
2022-10-12T06:05:45.742Z,5.05
2022-10-12T06:06:45.700Z,5.08
2022-10-12T06:07:45.595Z,5.09
2022-10-12T06:08:45.525Z,5.09
2022-10-12T06:09:45.458Z,5.08
2022-10-12T06:10:45.393Z,5.05
2022-10-12T06:11:45.322Z,5.09
2022-10-12T06:12:45.258Z,5.06
2022-10-12T06:13:45.196Z,5.23
2022-10-12T06:14:45.128Z,5.17
2022-10-12T06:15:45.053Z,5.09
2022-10-12T06:16:44.995Z,5.14
2022-10-12T06:17:44.917Z,5.19
2022-10-12T06:18:44.851Z,5.22
2022-10-12T06:19:44.783Z,5.23
2022-10-12T06:20:44.716Z,5.32
2022-10-12T06:21:44.646Z,5.33
2022-10-12T06:22:44.581Z,5.40
2022-10-12T06:23:44.518Z,5.37
2022-10-12T06:24:44.445Z,5.40
2022-10-12T06:25:44.379Z,5.37
2022-10-12T06:26:44.313Z,5.51
2022-10-12T06:27:44.246Z,5.48
2022-10-12T06:28:44.205Z,5.56
2022-10-12T06:29:44.108Z,5.56
2022-10-12T06:30:44.093Z,5.67
2022-10-12T06:31:48.965Z,5.69
2022-10-12T06:32:43.906Z,5.66
2022-10-12T06:33:43.837Z,5.67
2022-10-12T06:34:43.780Z,5.74
2022-10-12T06:35:43.709Z,5.77
2022-10-12T06:36:43.637Z,5.84
2022-10-12T06:37:49.983Z,5.90
2022-10-12T06:38:43.525Z,5.88
2022-10-12T06:39:43.479Z,5.87
2022-10-12T06:40:43.374Z,5.88
2022-10-12T06:41:43.312Z,5.93
2022-10-12T06:42:43.283Z,5.96
2022-10-12T06:43:43.180Z,6.08
2022-10-12T06:44:43.108Z,6.13
2022-10-12T06:45:43.034Z,6.13
2022-10-12T06:46:42.969Z,6.19
2022-10-12T06:47:42.899Z,6.33
2022-10-12T06:48:42.834Z,6.35
2022-10-12T06:49:42.765Z,6.50
2022-10-12T06:50:42.703Z,6.69
2022-10-12T06:51:42.629Z,6.81
2022-10-12T06:52:42.565Z,6.90
2022-10-12T06:53:42.531Z,7.16
2022-10-12T06:54:42.433Z,7.23
2022-10-12T06:55:42.367Z,7.70
2022-10-12T06:56:42.312Z,7.92
2022-10-12T06:57:42.230Z,8.06
2022-10-12T06:58:42.174Z,8.07
2022-10-12T06:59:42.129Z,8.18
2022-10-12T07:00:42.039Z,8.31
2022-10-12T07:01:42.051Z,8.29
2022-10-12T07:02:41.925Z,8.31
2022-10-12T07:03:41.853Z,8.43
2022-10-12T07:04:41.767Z,8.73
2022-10-12T07:05:41.706Z,9.31
2022-10-12T07:06:41.636Z,9.56
2022-10-12T07:07:41.584Z,9.80
2022-10-12T07:08:41.503Z,9.88
2022-10-12T07:09:41.438Z,9.65
2022-10-12T07:10:41.375Z,9.56
2022-10-12T07:11:41.308Z,9.48
2022-10-12T07:12:41.358Z,9.42
2022-10-12T07:13:41.174Z,9.31
2022-10-12T07:14:41.116Z,9.23
2022-10-12T07:15:41.052Z,9.04
2022-10-12T07:16:40.981Z,9.06
2022-10-12T07:17:41.283Z,9.04
2022-10-12T07:18:40.854Z,9.17
2022-10-12T07:19:40.780Z,9.37
2022-10-12T07:20:40.720Z,9.80
2022-10-12T07:21:40.655Z,10.62
2022-10-12T07:22:40.592Z,11.28
2022-10-12T07:23:45.115Z,11.81
2022-10-12T07:24:40.468Z,12.13
2022-10-12T07:25:40.395Z,12.48
2022-10-12T07:26:40.330Z,12.76
2022-10-12T07:27:40.773Z,13.01
2022-10-12T07:28:40.239Z,13.29
2022-10-12T07:29:40.138Z,13.28
2022-10-12T07:30:40.108Z,13.51
2022-10-12T07:31:40.011Z,13.27
2022-10-12T07:32:39.949Z,13.22
2022-10-12T07:33:39.890Z,12.74
2022-10-12T07:34:39.822Z,12.54
2022-10-12T07:35:56.931Z,12.43
2022-10-12T07:36:58.034Z,12.36
2022-10-12T07:37:39.975Z,12.29
2022-10-12T07:38:39.572Z,12.16
2022-10-12T07:39:39.508Z,11.97
2022-10-12T07:40:39.439Z,11.77
2022-10-12T07:41:39.376Z,11.69
2022-10-12T07:42:53.749Z,11.72
2022-10-12T07:43:39.257Z,11.66
2022-10-12T07:44:39.188Z,11.60
2022-10-12T07:45:39.730Z,11.62
2022-10-12T07:46:39.065Z,11.57
2022-10-12T07:47:39.253Z,11.54
2022-10-12T07:48:38.937Z,11.56
2022-10-12T07:49:38.883Z,11.56
2022-10-12T07:50:38.927Z,11.62
2022-10-12T07:51:38.744Z,11.81
2022-10-12T07:52:38.688Z,11.90
2022-10-12T07:53:38.639Z,11.96
2022-10-12T07:54:38.560Z,12.03
2022-10-12T07:55:38.491Z,12.26
2022-10-12T07:56:38.436Z,12.73
2022-10-12T07:57:38.608Z,12.87
2022-10-12T07:58:38.309Z,13.43
2022-10-12T07:59:38.264Z,13.65
2022-10-12T08:00:38.179Z,13.79
2022-10-12T08:01:38.121Z,14.05
2022-10-12T08:02:38.057Z,14.08
2022-10-12T08:03:37.996Z,14.05
2022-10-12T08:04:37.931Z,14.05
2022-10-12T08:05:37.900Z,14.30
2022-10-12T08:06:37.808Z,14.45
2022-10-12T08:07:38.120Z,14.66
2022-10-12T08:08:37.681Z,15.18
2022-10-12T08:09:37.621Z,15.64
2022-10-12T08:10:37.561Z,16.48
2022-10-12T08:11:37.502Z,17.12
2022-10-12T08:12:37.436Z,17.65
2022-10-12T08:13:37.376Z,18.14
2022-10-12T08:14:37.319Z,18.56
2022-10-12T08:15:37.252Z,18.50
2022-10-12T08:16:37.192Z,18.87
2022-10-12T08:17:37.427Z,19.23
2022-10-12T08:18:37.071Z,19.64
2022-10-12T08:19:37.015Z,20.07
2022-10-12T08:20:36.956Z,20.35
2022-10-12T08:21:36.890Z,20.69
2022-10-12T08:22:36.850Z,20.69
2022-10-12T08:23:36.771Z,21.09
2022-10-12T08:24:36.714Z,20.97
2022-10-12T08:25:36.652Z,20.66
2022-10-12T08:26:36.594Z,20.73
2022-10-12T08:27:36.791Z,20.91
2022-10-12T08:28:36.672Z,20.54
2022-10-12T08:29:36.419Z,20.41
2022-10-12T08:30:36.360Z,20.83
2022-10-12T08:31:36.300Z,21.22
2022-10-12T08:32:36.243Z,21.22
2022-10-12T08:33:36.186Z,21.18
2022-10-12T08:34:36.129Z,20.33
2022-10-12T08:35:36.065Z,20.20
2022-10-12T08:36:36.016Z,20.51
2022-10-12T08:37:36.108Z,20.76
2022-10-12T08:38:35.901Z,20.93
2022-10-12T08:39:35.839Z,21.27
2022-10-12T08:40:35.780Z,21.24
2022-10-12T08:41:35.721Z,21.48
2022-10-12T08:42:35.665Z,21.73
2022-10-12T08:43:35.604Z,21.24
2022-10-12T08:44:35.565Z,20.31
2022-10-12T08:45:35.489Z,19.94
2022-10-12T08:46:35.433Z,19.78
2022-10-12T08:47:35.374Z,19.39
2022-10-12T08:48:35.327Z,19.27
2022-10-12T08:49:35.260Z,19.25
2022-10-12T08:50:35.258Z,19.40
2022-10-12T08:51:35.145Z,19.53
2022-10-12T08:52:35.086Z,19.86
2022-10-12T08:53:35.033Z,19.94
2022-10-12T08:54:34.986Z,20.23
2022-10-12T08:55:34.912Z,20.72
2022-10-12T08:56:34.864Z,20.78
2022-10-12T08:57:34.804Z,20.93
2022-10-12T08:58:34.745Z,21.45
2022-10-12T08:59:34.683Z,21.63
2022-10-12T09:01:34.606Z,21.81
2022-10-12T09:02:34.518Z,22.15
2022-10-12T09:03:34.455Z,22.46
2022-10-12T09:04:34.400Z,22.61
2022-10-12T09:05:34.346Z,22.96
2022-10-12T09:06:34.291Z,23.22
2022-10-12T09:07:34.234Z,23.62
2022-10-12T09:08:34.177Z,23.86
2022-10-12T09:09:34.121Z,23.60
2022-10-12T09:10:34.065Z,22.74
2022-10-12T09:11:34.003Z,22.08
2022-10-12T09:12:33.960Z,21.86
2022-10-12T09:13:33.910Z,22.06
2022-10-12T09:14:33.838Z,22.39
2022-10-12T09:15:33.778Z,22.54
2022-10-12T09:16:33.759Z,22.41
2022-10-12T09:17:33.667Z,22.49
2022-10-12T09:18:38.247Z,22.75
2022-10-12T09:19:33.558Z,23.21
2022-10-12T09:20:33.501Z,22.63
2022-10-12T09:21:33.447Z,22.35
2022-10-12T09:22:33.391Z,21.13
2022-10-12T09:23:33.333Z,21.42
2022-10-12T09:24:33.279Z,21.68
2022-10-12T09:25:33.223Z,21.79
2022-10-12T09:26:33.180Z,22.33
2022-10-12T09:27:33.112Z,22.57
2022-10-12T09:28:33.414Z,23.11
2022-10-12T09:29:32.998Z,23.23
2022-10-12T09:30:32.945Z,22.88
2022-10-12T09:31:32.894Z,22.39
2022-10-12T09:32:32.841Z,22.66
2022-10-12T09:33:32.782Z,23.06
2022-10-12T09:34:32.727Z,23.07
2022-10-12T09:35:32.673Z,23.04
2022-10-12T09:36:32.619Z,23.60
2022-10-12T09:37:32.558Z,23.31
2022-10-12T09:38:32.505Z,22.81
2022-10-12T09:39:32.460Z,22.54
2022-10-12T09:40:32.397Z,22.31
2022-10-12T09:41:32.338Z,21.86
2022-10-12T09:42:32.292Z,21.82
2022-10-12T09:43:32.229Z,22.39
2022-10-12T09:44:32.221Z,22.57
2022-10-12T09:45:32.117Z,22.78
2022-10-12T09:46:32.068Z,23.29
2022-10-12T09:47:32.010Z,23.90
2022-10-12T09:48:31.955Z,24.12
2022-10-12T09:49:31.898Z,24.39
2022-10-12T09:50:31.849Z,22.79
2022-10-12T09:51:31.789Z,21.43
2022-10-12T09:52:31.734Z,21.59
2022-10-12T09:53:31.693Z,21.85
2022-10-12T09:54:31.656Z,22.39
2022-10-12T09:55:31.591Z,22.89
2022-10-12T09:56:31.517Z,23.26
2022-10-12T09:57:31.463Z,23.69
2022-10-12T09:58:31.410Z,23.19
2022-10-12T09:59:31.355Z,23.42
2022-10-12T10:00:31.375Z,23.50
2022-10-12T10:01:31.267Z,23.23
2022-10-12T10:02:31.192Z,23.31
2022-10-12T10:03:31.738Z,22.14
2022-10-12T10:04:31.099Z,20.53
2022-10-12T10:05:31.023Z,20.16
2022-10-12T10:06:30.979Z,19.80
2022-10-12T10:07:30.949Z,20.19
2022-10-12T10:08:30.877Z,20.41
2022-10-12T10:09:30.809Z,20.98
2022-10-12T10:10:31.274Z,21.06
2022-10-12T10:11:30.691Z,20.66
2022-10-12T10:12:30.641Z,20.38
2022-10-12T10:13:30.593Z,20.57
2022-10-12T10:14:30.532Z,21.00
2022-10-12T10:15:30.471Z,21.73
2022-10-12T10:16:30.420Z,22.29
2022-10-12T10:17:30.362Z,22.66
2022-10-12T10:18:30.312Z,22.72
2022-10-12T10:19:30.255Z,22.88
2022-10-12T10:20:30.199Z,23.15
2022-10-12T10:21:30.144Z,22.97
2022-10-12T10:22:30.100Z,22.99
2022-10-12T10:23:30.035Z,21.73
2022-10-12T10:24:29.984Z,20.13
2022-10-12T10:25:29.932Z,20.33
2022-10-12T10:26:29.868Z,20.63
2022-10-12T10:27:29.822Z,20.90
2022-10-12T10:28:29.818Z,20.88
2022-10-12T10:29:29.704Z,21.45
2022-10-12T10:30:33.783Z,21.64
2022-10-12T10:31:29.726Z,21.67
2022-10-12T10:32:29.594Z,20.46
2022-10-12T10:33:29.486Z,20.12
2022-10-12T10:34:29.426Z,20.69
2022-10-12T10:35:29.377Z,21.12
2022-10-12T10:36:29.319Z,21.22
2022-10-12T10:37:29.261Z,21.49
2022-10-12T10:38:29.210Z,21.46
2022-10-12T10:39:29.166Z,21.46
2022-10-12T10:40:29.111Z,21.79
2022-10-12T10:41:29.042Z,21.64
2022-10-12T10:42:29.005Z,19.97
2022-10-12T10:43:28.932Z,19.75
2022-10-12T10:44:28.886Z,19.82
2022-10-12T10:45:28.819Z,20.35
2022-10-12T10:46:28.820Z,20.83
2022-10-12T10:47:28.709Z,21.18
2022-10-12T10:48:28.659Z,21.45
2022-10-12T10:49:28.598Z,21.43
2022-10-12T10:50:28.542Z,21.45
2022-10-12T10:51:28.486Z,21.18
2022-10-12T10:52:28.436Z,20.85
2022-10-12T10:53:28.378Z,19.94
2022-10-12T10:54:28.329Z,19.70
2022-10-12T10:55:28.273Z,20.02
2022-10-12T10:56:28.224Z,20.48
2022-10-12T10:57:28.158Z,20.98
2022-10-12T10:58:28.095Z,21.06
2022-10-12T10:59:28.047Z,21.24
2022-10-12T11:00:43.769Z,21.46
2022-10-12T11:01:27.959Z,21.98
2022-10-12T11:02:27.872Z,22.63
2022-10-12T11:03:27.820Z,23.09
2022-10-12T11:04:27.764Z,23.68
2022-10-12T11:05:27.705Z,23.71
2022-10-12T11:06:27.646Z,23.94
2022-10-12T11:07:27.597Z,24.23
2022-10-12T11:08:27.537Z,24.37
2022-10-12T11:09:27.488Z,24.15
2022-10-12T11:10:27.428Z,23.99
2022-10-12T11:11:27.370Z,23.99
2022-10-12T11:12:31.181Z,23.49
2022-10-12T11:13:27.260Z,23.14
2022-10-12T11:14:27.202Z,22.61
2022-10-12T11:15:27.148Z,21.98
2022-10-12T11:16:27.101Z,21.45
2022-10-12T11:17:27.040Z,21.21
2022-10-12T11:18:26.989Z,20.61
2022-10-12T11:19:26.924Z,20.05
2022-10-12T11:20:26.874Z,19.28
2022-10-12T11:21:26.809Z,17.96
2022-10-12T11:22:26.753Z,17.54
2022-10-12T11:23:26.705Z,17.20
2022-10-12T11:24:26.636Z,17.00
2022-10-12T11:25:26.580Z,17.09
2022-10-12T11:26:26.520Z,17.21
2022-10-12T11:27:26.466Z,17.30
2022-10-12T11:28:26.447Z,17.38
2022-10-12T11:29:26.348Z,17.22
2022-10-12T11:30:26.297Z,17.33
2022-10-12T11:31:26.242Z,17.00
2022-10-12T11:32:26.171Z,16.99
2022-10-12T11:33:26.121Z,17.09
2022-10-12T11:34:26.061Z,17.12
2022-10-12T11:35:26.000Z,17.10
2022-10-12T11:36:25.949Z,17.05
2022-10-12T11:37:25.888Z,17.12
2022-10-12T11:38:25.822Z,17.27
2022-10-12T11:39:25.766Z,17.27
2022-10-12T11:40:47.765Z,17.24
2022-10-12T11:41:52.445Z,17.09
2022-10-12T11:42:25.589Z,16.99
2022-10-12T11:43:25.521Z,16.80
2022-10-12T11:44:30.215Z,16.69
2022-10-12T11:45:25.402Z,16.48
2022-10-12T11:46:25.342Z,16.66
2022-10-12T11:47:25.284Z,16.54
2022-10-12T11:48:27.284Z,16.44
2022-10-12T11:49:25.163Z,16.50
2022-10-12T11:50:25.121Z,16.81
2022-10-12T11:51:25.040Z,16.84
2022-10-12T11:52:28.751Z,16.95
2022-10-12T11:53:24.948Z,17.10
2022-10-12T11:54:24.862Z,16.87
2022-10-12T11:55:24.811Z,16.88
2022-10-12T11:56:24.755Z,16.96
2022-10-12T11:57:24.682Z,17.07
2022-10-12T11:58:42.132Z,17.27
2022-10-12T11:59:24.560Z,17.35
2022-10-12T12:00:24.497Z,17.49
2022-10-12T12:01:24.442Z,17.51
2022-10-12T12:02:24.376Z,17.51
2022-10-12T12:03:24.353Z,17.27
2022-10-12T12:05:24.198Z,16.95
2022-10-12T12:06:24.144Z,16.98
2022-10-12T12:07:24.105Z,17.05
2022-10-12T12:08:24.042Z,17.09
2022-10-12T12:09:23.974Z,17.06
2022-10-12T12:10:23.903Z,17.25
2022-10-12T12:11:23.840Z,17.51
2022-10-12T12:12:23.778Z,17.51
2022-10-12T12:13:23.717Z,17.58
2022-10-12T12:14:23.648Z,17.62
2022-10-12T12:15:23.590Z,17.58
2022-10-12T12:16:23.529Z,17.71
2022-10-12T12:17:25.905Z,17.86
2022-10-12T12:18:23.408Z,17.73
2022-10-12T12:19:23.372Z,17.36
2022-10-12T12:20:23.286Z,17.17
2022-10-12T12:21:23.251Z,17.22
2022-10-12T12:22:23.185Z,17.45
2022-10-12T12:23:23.113Z,17.27
2022-10-12T12:24:23.043Z,17.40
2022-10-12T12:25:22.983Z,17.39
2022-10-12T12:26:22.919Z,17.42
2022-10-12T12:27:22.870Z,17.47
2022-10-12T12:28:22.868Z,17.58
2022-10-12T12:29:22.743Z,17.74
2022-10-12T12:30:22.723Z,17.77
2022-10-12T12:31:22.618Z,17.62
2022-10-12T12:32:22.560Z,17.57
2022-10-12T12:33:22.500Z,17.51
2022-10-12T12:34:22.436Z,17.54
2022-10-12T12:35:22.376Z,17.39
2022-10-12T12:36:22.316Z,17.35
2022-10-12T12:37:22.251Z,17.46
2022-10-12T12:38:22.197Z,17.32
2022-10-12T12:39:22.131Z,17.22
2022-10-12T12:40:22.069Z,17.10
2022-10-12T12:41:22.012Z,16.90
2022-10-12T12:42:21.948Z,16.95
2022-10-12T12:43:21.897Z,17.15
2022-10-12T12:44:21.826Z,17.27
2022-10-12T12:45:21.775Z,17.25
2022-10-12T12:46:21.712Z,17.28
2022-10-12T12:48:22.969Z,17.12
2022-10-12T12:49:21.523Z,17.27
2022-10-12T12:50:21.459Z,17.38
2022-10-12T12:51:21.401Z,17.38
2022-10-12T12:52:21.343Z,17.38
2022-10-12T12:53:21.282Z,17.27
2022-10-12T12:54:21.232Z,17.33
2022-10-12T12:55:21.171Z,17.35
2022-10-12T12:56:21.094Z,17.40
2022-10-12T12:57:21.039Z,17.42
2022-10-12T12:58:20.972Z,17.25
2022-10-12T12:59:20.923Z,17.32
2022-10-12T13:00:21.008Z,17.22
2022-10-12T13:01:20.819Z,17.28
2022-10-12T13:02:20.735Z,17.42
2022-10-12T13:03:20.670Z,17.43
2022-10-12T13:04:20.610Z,17.45
2022-10-12T13:05:20.551Z,17.43
2022-10-12T13:06:20.495Z,17.43
2022-10-12T13:07:20.426Z,17.25
2022-10-12T13:08:20.367Z,17.22